sensor_id;sensor_type;location;lat;lon;timestamp;P1;durP1;ratioP1;P2;durP2;ratioP2
18752;SDS011;9505;50.882;5.350;2022-08-27T00:01:31;9.98;;;5.10;;
18752;SDS011;9505;50.882;5.350;2022-08-27T00:03:57;17.70;;;5.05;;
18752;SDS011;9505;50.882;5.350;2022-08-27T00:06:23;11.27;;;4.68;;
18752;SDS011;9505;50.882;5.350;2022-08-27T00:08:50;16.25;;;5.07;;
18752;SDS011;9505;50.882;5.350;2022-08-27T00:11:17;15.27;;;5.35;;
18752;SDS011;9505;50.882;5.350;2022-08-27T00:13:44;12.23;;;4.30;;
18752;SDS011;9505;50.882;5.350;2022-08-27T00:16:10;13.82;;;4.95;;
18752;SDS011;9505;50.882;5.350;2022-08-27T00:18:39;11.90;;;4.80;;
18752;SDS011;9505;50.882;5.350;2022-08-27T00:21:06;12.15;;;4.57;;
18752;SDS011;9505;50.882;5.350;2022-08-27T00:23:33;17.33;;;5.57;;
18752;SDS011;9505;50.882;5.350;2022-08-27T00:25:59;15.02;;;5.47;;
18752;SDS011;9505;50.882;5.350;2022-08-27T00:28:26;14.90;;;4.68;;
18752;SDS011;9505;50.882;5.350;2022-08-27T00:30:53;10.27;;;5.07;;
18752;SDS011;9505;50.882;5.350;2022-08-27T00:33:20;20.67;;;6.57;;
18752;SDS011;9505;50.882;5.350;2022-08-27T00:35:46;15.82;;;7.00;;
18752;SDS011;9505;50.882;5.350;2022-08-27T00:38:12;16.45;;;6.20;;
18752;SDS011;9505;50.882;5.350;2022-08-27T00:40:38;15.20;;;6.10;;
18752;SDS011;9505;50.882;5.350;2022-08-27T00:43:05;21.00;;;7.07;;
18752;SDS011;9505;50.882;5.350;2022-08-27T00:45:31;17.83;;;6.90;;
18752;SDS011;9505;50.882;5.350;2022-08-27T00:48:03;15.02;;;6.45;;
18752;SDS011;9505;50.882;5.350;2022-08-27T00:52:58;17.52;;;6.70;;
18752;SDS011;9505;50.882;5.350;2022-08-27T00:55:30;17.05;;;6.65;;
18752;SDS011;9505;50.882;5.350;2022-08-27T01:00:39;12.80;;;6.00;;
18752;SDS011;9505;50.882;5.350;2022-08-27T01:03:06;21.52;;;5.90;;
18752;SDS011;9505;50.882;5.350;2022-08-27T01:05:32;14.65;;;5.47;;
18752;SDS011;9505;50.882;5.350;2022-08-27T01:08:01;18.48;;;6.03;;
18752;SDS011;9505;50.882;5.350;2022-08-27T01:10:31;17.17;;;6.57;;
18752;SDS011;9505;50.882;5.350;2022-08-27T01:12:57;10.30;;;5.20;;
18752;SDS011;9505;50.882;5.350;2022-08-27T01:15:24;12.38;;;5.30;;
18752;SDS011;9505;50.882;5.350;2022-08-27T01:17:52;12.55;;;5.45;;
18752;SDS011;9505;50.882;5.350;2022-08-27T01:20:26;13.82;;;6.07;;
18752;SDS011;9505;50.882;5.350;2022-08-27T01:25:44;13.18;;;5.25;;
18752;SDS011;9505;50.882;5.350;2022-08-27T01:28:10;17.90;;;6.68;;
18752;SDS011;9505;50.882;5.350;2022-08-27T01:30:39;16.80;;;6.07;;
18752;SDS011;9505;50.882;5.350;2022-08-27T01:33:09;20.30;;;6.55;;
18752;SDS011;9505;50.882;5.350;2022-08-27T01:35:39;13.55;;;5.35;;
18752;SDS011;9505;50.882;5.350;2022-08-27T01:38:06;14.15;;;5.65;;
18752;SDS011;9505;50.882;5.350;2022-08-27T01:40:32;15.93;;;6.72;;
18752;SDS011;9505;50.882;5.350;2022-08-27T01:42:57;14.15;;;6.20;;
18752;SDS011;9505;50.882;5.350;2022-08-27T01:45:28;20.92;;;6.88;;
18752;SDS011;9505;50.882;5.350;2022-08-27T01:47:56;21.40;;;6.93;;
18752;SDS011;9505;50.882;5.350;2022-08-27T01:50:26;23.92;;;5.93;;
18752;SDS011;9505;50.882;5.350;2022-08-27T01:52:56;16.17;;;5.90;;
18752;SDS011;9505;50.882;5.350;2022-08-27T01:55:25;19.73;;;6.95;;
18752;SDS011;9505;50.882;5.350;2022-08-27T01:57:52;15.05;;;5.93;;
18752;SDS011;9505;50.882;5.350;2022-08-27T02:00:20;19.40;;;6.18;;
18752;SDS011;9505;50.882;5.350;2022-08-27T02:02:54;15.57;;;5.70;;
18752;SDS011;9505;50.882;5.350;2022-08-27T02:05:21;16.95;;;6.13;;
18752;SDS011;9505;50.882;5.350;2022-08-27T02:07:47;15.77;;;6.03;;
18752;SDS011;9505;50.882;5.350;2022-08-27T02:10:14;15.93;;;6.38;;
18752;SDS011;9505;50.882;5.350;2022-08-27T02:12:43;15.60;;;6.78;;
18752;SDS011;9505;50.882;5.350;2022-08-27T02:15:10;21.55;;;6.90;;
18752;SDS011;9505;50.882;5.350;2022-08-27T02:17:35;18.98;;;6.63;;
18752;SDS011;9505;50.882;5.350;2022-08-27T02:20:02;14.88;;;6.10;;
18752;SDS011;9505;50.882;5.350;2022-08-27T02:22:29;13.77;;;6.18;;
18752;SDS011;9505;50.882;5.350;2022-08-27T02:24:56;11.73;;;5.60;;
18752;SDS011;9505;50.882;5.350;2022-08-27T02:27:21;14.10;;;5.95;;
18752;SDS011;9505;50.882;5.350;2022-08-27T02:29:47;16.60;;;6.43;;
18752;SDS011;9505;50.882;5.350;2022-08-27T02:32:13;13.00;;;5.40;;
18752;SDS011;9505;50.882;5.350;2022-08-27T02:34:39;13.35;;;6.15;;
18752;SDS011;9505;50.882;5.350;2022-08-27T02:37:05;17.42;;;6.68;;
18752;SDS011;9505;50.882;5.350;2022-08-27T02:39:31;15.85;;;6.30;;
18752;SDS011;9505;50.882;5.350;2022-08-27T02:41:57;20.77;;;7.20;;
18752;SDS011;9505;50.882;5.350;2022-08-27T02:44:23;19.02;;;6.72;;
18752;SDS011;9505;50.882;5.350;2022-08-27T02:46:49;12.52;;;6.00;;
18752;SDS011;9505;50.882;5.350;2022-08-27T02:49:14;17.45;;;6.80;;
18752;SDS011;9505;50.882;5.350;2022-08-27T02:51:40;29.15;;;8.30;;
18752;SDS011;9505;50.882;5.350;2022-08-27T02:54:06;19.67;;;7.35;;
18752;SDS011;9505;50.882;5.350;2022-08-27T02:56:31;17.08;;;6.75;;
18752;SDS011;9505;50.882;5.350;2022-08-27T02:58:57;21.77;;;7.13;;
18752;SDS011;9505;50.882;5.350;2022-08-27T03:01:23;15.90;;;6.35;;
18752;SDS011;9505;50.882;5.350;2022-08-27T03:03:49;14.40;;;6.10;;
18752;SDS011;9505;50.882;5.350;2022-08-27T03:06:15;14.52;;;5.70;;
18752;SDS011;9505;50.882;5.350;2022-08-27T03:08:41;18.27;;;7.35;;
18752;SDS011;9505;50.882;5.350;2022-08-27T03:11:06;12.43;;;6.00;;
18752;SDS011;9505;50.882;5.350;2022-08-27T03:13:36;15.70;;;6.50;;
18752;SDS011;9505;50.882;5.350;2022-08-27T03:16:03;17.42;;;6.70;;
18752;SDS011;9505;50.882;5.350;2022-08-27T03:18:29;23.27;;;7.47;;
18752;SDS011;9505;50.882;5.350;2022-08-27T03:20:56;14.55;;;6.22;;
18752;SDS011;9505;50.882;5.350;2022-08-27T03:23:25;12.77;;;5.57;;
18752;SDS011;9505;50.882;5.350;2022-08-27T03:25:54;17.23;;;6.55;;
18752;SDS011;9505;50.882;5.350;2022-08-27T03:28:23;14.82;;;5.55;;
18752;SDS011;9505;50.882;5.350;2022-08-27T03:30:51;15.82;;;6.55;;
18752;SDS011;9505;50.882;5.350;2022-08-27T03:33:19;17.50;;;6.50;;
18752;SDS011;9505;50.882;5.350;2022-08-27T03:35:46;17.80;;;6.50;;
18752;SDS011;9505;50.882;5.350;2022-08-27T03:38:13;16.60;;;6.88;;
18752;SDS011;9505;50.882;5.350;2022-08-27T03:40:39;20.00;;;7.80;;
18752;SDS011;9505;50.882;5.350;2022-08-27T03:43:07;15.27;;;7.30;;
18752;SDS011;9505;50.882;5.350;2022-08-27T03:45:33;15.10;;;7.07;;
18752;SDS011;9505;50.882;5.350;2022-08-27T03:47:59;21.50;;;7.20;;
18752;SDS011;9505;50.882;5.350;2022-08-27T03:50:25;20.40;;;7.63;;
18752;SDS011;9505;50.882;5.350;2022-08-27T03:52:50;24.50;;;7.80;;
18752;SDS011;9505;50.882;5.350;2022-08-27T03:55:16;19.00;;;6.75;;
18752;SDS011;9505;50.882;5.350;2022-08-27T03:57:42;18.25;;;7.78;;
18752;SDS011;9505;50.882;5.350;2022-08-27T04:00:08;25.92;;;7.80;;
18752;SDS011;9505;50.882;5.350;2022-08-27T04:02:37;18.90;;;7.47;;
18752;SDS011;9505;50.882;5.350;2022-08-27T04:05:04;15.90;;;7.35;;
18752;SDS011;9505;50.882;5.350;2022-08-27T04:07:29;19.40;;;7.38;;
18752;SDS011;9505;50.882;5.350;2022-08-27T04:09:56;22.48;;;7.00;;
18752;SDS011;9505;50.882;5.350;2022-08-27T04:12:22;20.20;;;7.88;;
18752;SDS011;9505;50.882;5.350;2022-08-27T04:14:48;21.70;;;7.93;;
18752;SDS011;9505;50.882;5.350;2022-08-27T04:17:14;26.67;;;9.52;;
18752;SDS011;9505;50.882;5.350;2022-08-27T04:19:40;20.33;;;8.10;;
18752;SDS011;9505;50.882;5.350;2022-08-27T04:22:06;17.45;;;8.32;;
18752;SDS011;9505;50.882;5.350;2022-08-27T04:24:33;22.75;;;8.27;;
18752;SDS011;9505;50.882;5.350;2022-08-27T04:27:00;26.15;;;8.60;;
18752;SDS011;9505;50.882;5.350;2022-08-27T04:29:27;17.25;;;7.90;;
18752;SDS011;9505;50.882;5.350;2022-08-27T04:31:53;23.23;;;9.00;;
18752;SDS011;9505;50.882;5.350;2022-08-27T04:34:20;27.55;;;9.25;;
18752;SDS011;9505;50.882;5.350;2022-08-27T04:36:45;27.95;;;8.50;;
18752;SDS011;9505;50.882;5.350;2022-08-27T04:39:12;21.58;;;7.53;;
18752;SDS011;9505;50.882;5.350;2022-08-27T04:41:38;27.52;;;9.30;;
18752;SDS011;9505;50.882;5.350;2022-08-27T04:44:05;24.15;;;8.93;;
18752;SDS011;9505;50.882;5.350;2022-08-27T04:46:34;24.35;;;9.25;;
18752;SDS011;9505;50.882;5.350;2022-08-27T04:49:05;24.13;;;8.18;;
18752;SDS011;9505;50.882;5.350;2022-08-27T04:51:33;23.48;;;9.13;;
18752;SDS011;9505;50.882;5.350;2022-08-27T04:54:00;20.98;;;7.32;;
18752;SDS011;9505;50.882;5.350;2022-08-27T04:56:28;24.75;;;9.32;;
18752;SDS011;9505;50.882;5.350;2022-08-27T04:58:54;28.52;;;9.52;;
18752;SDS011;9505;50.882;5.350;2022-08-27T05:01:24;20.48;;;7.95;;
18752;SDS011;9505;50.882;5.350;2022-08-27T05:03:52;30.83;;;10.13;;
18752;SDS011;9505;50.882;5.350;2022-08-27T05:06:19;23.13;;;8.60;;
18752;SDS011;9505;50.882;5.350;2022-08-27T05:08:46;31.45;;;10.00;;
18752;SDS011;9505;50.882;5.350;2022-08-27T05:11:14;23.05;;;9.48;;
18752;SDS011;9505;50.882;5.350;2022-08-27T05:13:42;28.60;;;10.52;;
18752;SDS011;9505;50.882;5.350;2022-08-27T05:16:09;40.38;;;12.40;;
18752;SDS011;9505;50.882;5.350;2022-08-27T05:18:38;42.15;;;12.60;;
18752;SDS011;9505;50.882;5.350;2022-08-27T05:21:04;35.90;;;11.98;;
18752;SDS011;9505;50.882;5.350;2022-08-27T05:23:30;26.98;;;10.50;;
18752;SDS011;9505;50.882;5.350;2022-08-27T05:25:56;32.00;;;11.75;;
18752;SDS011;9505;50.882;5.350;2022-08-27T05:28:23;38.92;;;12.52;;
18752;SDS011;9505;50.882;5.350;2022-08-27T05:30:52;29.27;;;11.25;;
18752;SDS011;9505;50.882;5.350;2022-08-27T05:33:21;39.63;;;13.07;;
18752;SDS011;9505;50.882;5.350;2022-08-27T05:35:50;35.30;;;12.05;;
18752;SDS011;9505;50.882;5.350;2022-08-27T05:38:18;35.75;;;12.48;;
18752;SDS011;9505;50.882;5.350;2022-08-27T05:40:44;33.78;;;11.77;;
18752;SDS011;9505;50.882;5.350;2022-08-27T05:43:12;30.13;;;13.10;;
18752;SDS011;9505;50.882;5.350;2022-08-27T05:45:43;38.15;;;13.80;;
18752;SDS011;9505;50.882;5.350;2022-08-27T05:48:12;29.95;;;13.02;;
18752;SDS011;9505;50.882;5.350;2022-08-27T05:50:40;41.25;;;13.13;;
18752;SDS011;9505;50.882;5.350;2022-08-27T05:53:07;37.28;;;13.10;;
18752;SDS011;9505;50.882;5.350;2022-08-27T05:55:43;42.50;;;13.10;;
18752;SDS011;9505;50.882;5.350;2022-08-27T05:58:10;34.90;;;11.63;;
18752;SDS011;9505;50.882;5.350;2022-08-27T06:00:59;41.00;;;13.38;;
18752;SDS011;9505;50.882;5.350;2022-08-27T06:03:31;32.80;;;12.43;;
18752;SDS011;9505;50.882;5.350;2022-08-27T06:05:58;40.53;;;13.73;;
18752;SDS011;9505;50.882;5.350;2022-08-27T06:08:28;38.70;;;13.98;;
18752;SDS011;9505;50.882;5.350;2022-08-27T06:10:54;42.67;;;14.93;;
18752;SDS011;9505;50.882;5.350;2022-08-27T06:13:20;39.80;;;14.18;;
18752;SDS011;9505;50.882;5.350;2022-08-27T06:15:47;38.28;;;14.05;;
18752;SDS011;9505;50.882;5.350;2022-08-27T06:18:14;46.35;;;15.35;;
18752;SDS011;9505;50.882;5.350;2022-08-27T06:20:39;33.88;;;13.00;;
18752;SDS011;9505;50.882;5.350;2022-08-27T06:23:05;39.25;;;14.30;;
18752;SDS011;9505;50.882;5.350;2022-08-27T06:25:31;33.70;;;11.45;;
18752;SDS011;9505;50.882;5.350;2022-08-27T06:27:57;26.20;;;10.05;;
18752;SDS011;9505;50.882;5.350;2022-08-27T06:30:24;17.73;;;8.48;;
18752;SDS011;9505;50.882;5.350;2022-08-27T06:32:50;18.13;;;8.35;;
18752;SDS011;9505;50.882;5.350;2022-08-27T06:35:16;17.33;;;6.70;;
18752;SDS011;9505;50.882;5.350;2022-08-27T06:37:42;13.57;;;6.13;;
18752;SDS011;9505;50.882;5.350;2022-08-27T06:40:08;13.43;;;5.97;;
18752;SDS011;9505;50.882;5.350;2022-08-27T06:42:34;13.73;;;4.68;;
18752;SDS011;9505;50.882;5.350;2022-08-27T06:45:03;19.35;;;5.88;;
18752;SDS011;9505;50.882;5.350;2022-08-27T06:47:31;17.83;;;5.25;;
18752;SDS011;9505;50.882;5.350;2022-08-27T06:49:57;14.15;;;4.90;;
18752;SDS011;9505;50.882;5.350;2022-08-27T06:52:22;15.63;;;5.03;;
18752;SDS011;9505;50.882;5.350;2022-08-27T06:54:48;11.05;;;4.05;;
18752;SDS011;9505;50.882;5.350;2022-08-27T06:57:14;10.68;;;4.18;;
18752;SDS011;9505;50.882;5.350;2022-08-27T06:59:40;11.57;;;4.38;;
18752;SDS011;9505;50.882;5.350;2022-08-27T07:02:07;17.58;;;4.63;;
18752;SDS011;9505;50.882;5.350;2022-08-27T07:04:32;11.52;;;3.35;;
18752;SDS011;9505;50.882;5.350;2022-08-27T07:07:00;14.20;;;4.00;;
18752;SDS011;9505;50.882;5.350;2022-08-27T07:09:26;14.52;;;3.33;;
18752;SDS011;9505;50.882;5.350;2022-08-27T07:11:54;8.65;;;2.83;;
18752;SDS011;9505;50.882;5.350;2022-08-27T07:14:21;11.07;;;3.53;;
18752;SDS011;9505;50.882;5.350;2022-08-27T07:16:47;9.23;;;3.25;;
18752;SDS011;9505;50.882;5.350;2022-08-27T07:19:13;13.38;;;3.53;;
18752;SDS011;9505;50.882;5.350;2022-08-27T07:21:39;9.02;;;2.90;;
18752;SDS011;9505;50.882;5.350;2022-08-27T07:24:04;9.93;;;2.90;;
18752;SDS011;9505;50.882;5.350;2022-08-27T07:26:33;7.18;;;2.85;;
18752;SDS011;9505;50.882;5.350;2022-08-27T07:29:02;11.48;;;3.60;;
18752;SDS011;9505;50.882;5.350;2022-08-27T07:31:29;7.10;;;2.35;;
18752;SDS011;9505;50.882;5.350;2022-08-27T07:33:54;6.85;;;2.50;;
18752;SDS011;9505;50.882;5.350;2022-08-27T07:36:20;12.73;;;2.65;;
18752;SDS011;9505;50.882;5.350;2022-08-27T07:38:48;9.55;;;2.75;;
18752;SDS011;9505;50.882;5.350;2022-08-27T07:41:14;7.60;;;2.83;;
18752;SDS011;9505;50.882;5.350;2022-08-27T07:43:41;14.77;;;3.08;;
18752;SDS011;9505;50.882;5.350;2022-08-27T07:46:38;9.90;;;2.53;;
18752;SDS011;9505;50.882;5.350;2022-08-27T07:49:04;9.00;;;2.55;;
18752;SDS011;9505;50.882;5.350;2022-08-27T07:51:30;14.88;;;3.75;;
18752;SDS011;9505;50.882;5.350;2022-08-27T07:53:56;11.52;;;2.70;;
18752;SDS011;9505;50.882;5.350;2022-08-27T07:56:23;9.25;;;2.85;;
18752;SDS011;9505;50.882;5.350;2022-08-27T07:58:49;13.93;;;3.67;;
18752;SDS011;9505;50.882;5.350;2022-08-27T08:01:15;14.70;;;2.83;;
18752;SDS011;9505;50.882;5.350;2022-08-27T08:03:42;7.20;;;2.20;;
18752;SDS011;9505;50.882;5.350;2022-08-27T08:06:09;10.38;;;2.22;;
18752;SDS011;9505;50.882;5.350;2022-08-27T08:08:37;15.05;;;2.95;;
18752;SDS011;9505;50.882;5.350;2022-08-27T08:11:05;11.57;;;2.75;;
18752;SDS011;9505;50.882;5.350;2022-08-27T08:13:32;5.25;;;2.00;;
18752;SDS011;9505;50.882;5.350;2022-08-27T08:15:58;8.70;;;2.40;;
18752;SDS011;9505;50.882;5.350;2022-08-27T08:18:24;8.88;;;2.30;;
18752;SDS011;9505;50.882;5.350;2022-08-27T08:20:50;8.23;;;2.00;;
18752;SDS011;9505;50.882;5.350;2022-08-27T08:23:16;8.77;;;2.65;;
18752;SDS011;9505;50.882;5.350;2022-08-27T08:25:42;10.13;;;2.47;;
18752;SDS011;9505;50.882;5.350;2022-08-27T08:28:08;9.13;;;2.42;;
18752;SDS011;9505;50.882;5.350;2022-08-27T08:30:35;9.57;;;2.22;;
18752;SDS011;9505;50.882;5.350;2022-08-27T08:33:02;18.00;;;3.53;;
18752;SDS011;9505;50.882;5.350;2022-08-27T08:35:27;7.43;;;2.42;;
18752;SDS011;9505;50.882;5.350;2022-08-27T08:37:53;12.32;;;2.10;;
18752;SDS011;9505;50.882;5.350;2022-08-27T08:40:38;14.18;;;2.65;;
18752;SDS011;9505;50.882;5.350;2022-08-27T08:43:12;13.20;;;3.15;;
18752;SDS011;9505;50.882;5.350;2022-08-27T08:46:30;9.80;;;2.70;;
18752;SDS011;9505;50.882;5.350;2022-08-27T08:49:03;9.43;;;2.50;;
18752;SDS011;9505;50.882;5.350;2022-08-27T08:51:41;8.82;;;2.42;;
18752;SDS011;9505;50.882;5.350;2022-08-27T08:54:18;9.63;;;2.45;;
18752;SDS011;9505;50.882;5.350;2022-08-27T08:59:40;8.55;;;2.38;;
18752;SDS011;9505;50.882;5.350;2022-08-27T09:02:11;7.30;;;2.13;;
18752;SDS011;9505;50.882;5.350;2022-08-27T09:04:39;15.48;;;2.80;;
18752;SDS011;9505;50.882;5.350;2022-08-27T09:08:10;11.10;;;2.80;;
18752;SDS011;9505;50.882;5.350;2022-08-27T09:12:50;7.45;;;2.50;;
18752;SDS011;9505;50.882;5.350;2022-08-27T09:15:20;7.10;;;1.85;;
18752;SDS011;9505;50.882;5.350;2022-08-27T09:17:51;8.70;;;2.00;;
18752;SDS011;9505;50.882;5.350;2022-08-27T09:20:17;9.32;;;2.85;;
18752;SDS011;9505;50.882;5.350;2022-08-27T09:25:30;9.48;;;2.28;;
18752;SDS011;9505;50.882;5.350;2022-08-27T09:27:59;6.88;;;2.42;;
18752;SDS011;9505;50.882;5.350;2022-08-27T09:30:32;7.20;;;2.00;;
18752;SDS011;9505;50.882;5.350;2022-08-27T09:33:06;9.10;;;2.28;;
18752;SDS011;9505;50.882;5.350;2022-08-27T09:35:43;6.47;;;1.80;;
18752;SDS011;9505;50.882;5.350;2022-08-27T09:38:10;7.90;;;2.05;;
18752;SDS011;9505;50.882;5.350;2022-08-27T09:40:55;8.90;;;2.33;;
18752;SDS011;9505;50.882;5.350;2022-08-27T09:43:25;11.48;;;2.53;;
18752;SDS011;9505;50.882;5.350;2022-08-27T09:45:59;10.00;;;2.15;;
18752;SDS011;9505;50.882;5.350;2022-08-27T09:48:27;14.18;;;3.05;;
18752;SDS011;9505;50.882;5.350;2022-08-27T09:51:12;5.82;;;1.67;;
18752;SDS011;9505;50.882;5.350;2022-08-27T09:56:19;10.65;;;2.63;;
18752;SDS011;9505;50.882;5.350;2022-08-27T09:59:12;7.72;;;1.98;;
18752;SDS011;9505;50.882;5.350;2022-08-27T10:05:12;9.18;;;2.00;;
18752;SDS011;9505;50.882;5.350;2022-08-27T10:10:07;11.48;;;2.30;;
18752;SDS011;9505;50.882;5.350;2022-08-27T10:12:58;10.40;;;2.25;;
18752;SDS011;9505;50.882;5.350;2022-08-27T10:15:31;8.38;;;2.38;;
18752;SDS011;9505;50.882;5.350;2022-08-27T10:18:09;7.88;;;1.98;;
18752;SDS011;9505;50.882;5.350;2022-08-27T10:21:28;10.65;;;2.53;;
18752;SDS011;9505;50.882;5.350;2022-08-27T10:37:47;8.98;;;2.25;;
18752;SDS011;9505;50.882;5.350;2022-08-27T10:40:37;7.28;;;2.28;;
18752;SDS011;9505;50.882;5.350;2022-08-27T10:49:12;11.07;;;2.55;;
18752;SDS011;9505;50.882;5.350;2022-08-27T11:00:06;14.73;;;3.20;;
18752;SDS011;9505;50.882;5.350;2022-08-27T11:02:41;14.25;;;3.35;;
18752;SDS011;9505;50.882;5.350;2022-08-27T11:10:30;11.68;;;2.60;;
18752;SDS011;9505;50.882;5.350;2022-08-27T11:13:04;11.00;;;2.47;;
18752;SDS011;9505;50.882;5.350;2022-08-27T11:15:34;12.27;;;3.33;;
18752;SDS011;9505;50.882;5.350;2022-08-27T11:18:16;10.18;;;2.80;;
18752;SDS011;9505;50.882;5.350;2022-08-27T11:23:34;12.10;;;2.53;;
18752;SDS011;9505;50.882;5.350;2022-08-27T11:26:05;6.57;;;1.85;;
18752;SDS011;9505;50.882;5.350;2022-08-27T11:28:36;22.63;;;5.50;;
18752;SDS011;9505;50.882;5.350;2022-08-27T11:36:24;19.08;;;3.95;;
18752;SDS011;9505;50.882;5.350;2022-08-27T11:41:59;15.75;;;3.05;;
18752;SDS011;9505;50.882;5.350;2022-08-27T11:44:38;9.60;;;2.38;;
18752;SDS011;9505;50.882;5.350;2022-08-27T11:47:10;8.40;;;2.40;;
18752;SDS011;9505;50.882;5.350;2022-08-27T11:49:46;14.95;;;3.55;;
18752;SDS011;9505;50.882;5.350;2022-08-27T11:52:38;13.35;;;2.95;;
18752;SDS011;9505;50.882;5.350;2022-08-27T11:57:44;29.17;;;6.10;;
18752;SDS011;9505;50.882;5.350;2022-08-27T12:00:27;24.60;;;5.88;;
18752;SDS011;9505;50.882;5.350;2022-08-27T12:03:02;12.05;;;2.92;;
18752;SDS011;9505;50.882;5.350;2022-08-27T12:05:47;22.15;;;4.30;;
18752;SDS011;9505;50.882;5.350;2022-08-27T12:08:30;25.08;;;5.20;;
18752;SDS011;9505;50.882;5.350;2022-08-27T12:11:04;21.13;;;4.78;;
18752;SDS011;9505;50.882;5.350;2022-08-27T12:26:02;13.77;;;2.78;;
18752;SDS011;9505;50.882;5.350;2022-08-27T12:31:43;8.48;;;2.20;;
18752;SDS011;9505;50.882;5.350;2022-08-27T12:34:17;22.30;;;4.93;;
18752;SDS011;9505;50.882;5.350;2022-08-27T12:36:53;8.60;;;2.30;;
18752;SDS011;9505;50.882;5.350;2022-08-27T12:39:27;26.08;;;5.57;;
18752;SDS011;9505;50.882;5.350;2022-08-27T12:41:56;14.57;;;3.38;;
18752;SDS011;9505;50.882;5.350;2022-08-27T12:44:23;21.65;;;5.00;;
18752;SDS011;9505;50.882;5.350;2022-08-27T12:46:53;22.75;;;4.80;;
18752;SDS011;9505;50.882;5.350;2022-08-27T12:55:09;12.38;;;3.30;;
18752;SDS011;9505;50.882;5.350;2022-08-27T13:00:18;18.00;;;4.22;;
18752;SDS011;9505;50.882;5.350;2022-08-27T13:05:45;15.32;;;3.60;;
18752;SDS011;9505;50.882;5.350;2022-08-27T13:10:51;19.95;;;4.32;;
18752;SDS011;9505;50.882;5.350;2022-08-27T13:13:18;27.88;;;5.70;;
18752;SDS011;9505;50.882;5.350;2022-08-27T13:15:47;24.63;;;5.60;;
18752;SDS011;9505;50.882;5.350;2022-08-27T13:18:19;24.77;;;5.20;;
18752;SDS011;9505;50.882;5.350;2022-08-27T13:20:50;13.82;;;2.95;;
18752;SDS011;9505;50.882;5.350;2022-08-27T13:23:24;14.75;;;3.42;;
18752;SDS011;9505;50.882;5.350;2022-08-27T13:25:56;7.47;;;2.45;;
18752;SDS011;9505;50.882;5.350;2022-08-27T13:28:29;6.20;;;2.03;;
18752;SDS011;9505;50.882;5.350;2022-08-27T13:30:55;5.00;;;1.75;;
18752;SDS011;9505;50.882;5.350;2022-08-27T13:33:23;6.38;;;2.10;;
18752;SDS011;9505;50.882;5.350;2022-08-27T13:35:52;13.70;;;3.25;;
18752;SDS011;9505;50.882;5.350;2022-08-27T13:38:19;7.07;;;2.35;;
18752;SDS011;9505;50.882;5.350;2022-08-27T13:40:50;9.82;;;2.50;;
18752;SDS011;9505;50.882;5.350;2022-08-27T13:43:20;6.75;;;2.17;;
18752;SDS011;9505;50.882;5.350;2022-08-27T13:46:00;6.13;;;2.10;;
18752;SDS011;9505;50.882;5.350;2022-08-27T13:48:30;8.48;;;2.13;;
18752;SDS011;9505;50.882;5.350;2022-08-27T13:50:57;6.15;;;2.03;;
18752;SDS011;9505;50.882;5.350;2022-08-27T13:53:32;7.72;;;2.10;;
18752;SDS011;9505;50.882;5.350;2022-08-27T13:56:30;5.22;;;1.77;;
18752;SDS011;9505;50.882;5.350;2022-08-27T13:59:12;4.35;;;1.90;;
18752;SDS011;9505;50.882;5.350;2022-08-27T14:01:41;6.28;;;2.38;;
18752;SDS011;9505;50.882;5.350;2022-08-27T14:04:23;8.30;;;2.25;;
18752;SDS011;9505;50.882;5.350;2022-08-27T14:06:51;9.68;;;2.40;;
18752;SDS011;9505;50.882;5.350;2022-08-27T14:09:27;7.80;;;1.90;;
18752;SDS011;9505;50.882;5.350;2022-08-27T14:12:00;6.68;;;1.90;;
18752;SDS011;9505;50.882;5.350;2022-08-27T14:14:36;5.10;;;1.80;;
18752;SDS011;9505;50.882;5.350;2022-08-27T14:17:19;9.27;;;2.25;;
18752;SDS011;9505;50.882;5.350;2022-08-27T14:19:47;26.33;;;5.53;;
18752;SDS011;9505;50.882;5.350;2022-08-27T14:22:14;20.42;;;4.53;;
18752;SDS011;9505;50.882;5.350;2022-08-27T14:24:39;7.53;;;1.95;;
18752;SDS011;9505;50.882;5.350;2022-08-27T14:27:09;6.82;;;1.77;;
18752;SDS011;9505;50.882;5.350;2022-08-27T14:29:38;9.27;;;2.50;;
18752;SDS011;9505;50.882;5.350;2022-08-27T14:32:04;27.77;;;5.85;;
18752;SDS011;9505;50.882;5.350;2022-08-27T14:34:31;24.45;;;4.85;;
18752;SDS011;9505;50.882;5.350;2022-08-27T14:36:57;8.23;;;2.17;;
18752;SDS011;9505;50.882;5.350;2022-08-27T14:39:23;16.45;;;3.85;;
18752;SDS011;9505;50.882;5.350;2022-08-27T14:41:49;25.73;;;5.43;;
18752;SDS011;9505;50.882;5.350;2022-08-27T14:44:14;9.00;;;2.50;;
18752;SDS011;9505;50.882;5.350;2022-08-27T14:46:40;8.55;;;2.05;;
18752;SDS011;9505;50.882;5.350;2022-08-27T14:49:10;27.27;;;5.70;;
18752;SDS011;9505;50.882;5.350;2022-08-27T14:51:39;24.75;;;5.13;;
18752;SDS011;9505;50.882;5.350;2022-08-27T14:54:06;20.63;;;4.78;;
18752;SDS011;9505;50.882;5.350;2022-08-27T14:56:32;10.75;;;2.83;;
18752;SDS011;9505;50.882;5.350;2022-08-27T14:58:58;16.70;;;3.63;;
18752;SDS011;9505;50.882;5.350;2022-08-27T15:01:24;29.70;;;6.55;;
18752;SDS011;9505;50.882;5.350;2022-08-27T15:03:50;16.10;;;3.85;;
18752;SDS011;9505;50.882;5.350;2022-08-27T15:06:17;11.65;;;2.65;;
18752;SDS011;9505;50.882;5.350;2022-08-27T15:08:46;15.85;;;3.90;;
18752;SDS011;9505;50.882;5.350;2022-08-27T15:11:15;26.42;;;5.78;;
18752;SDS011;9505;50.882;5.350;2022-08-27T15:13:48;22.10;;;5.30;;
18752;SDS011;9505;50.882;5.350;2022-08-27T15:16:15;18.85;;;4.38;;
18752;SDS011;9505;50.882;5.350;2022-08-27T15:18:52;32.92;;;6.68;;
18752;SDS011;9505;50.882;5.350;2022-08-27T15:21:18;9.18;;;2.40;;
18752;SDS011;9505;50.882;5.350;2022-08-27T15:23:45;9.95;;;2.33;;
18752;SDS011;9505;50.882;5.350;2022-08-27T15:26:13;46.28;;;6.85;;
18752;SDS011;9505;50.882;5.350;2022-08-27T15:28:38;23.27;;;4.90;;
18752;SDS011;9505;50.882;5.350;2022-08-27T15:31:04;9.20;;;2.25;;
18752;SDS011;9505;50.882;5.350;2022-08-27T15:33:30;12.35;;;2.80;;
18752;SDS011;9505;50.882;5.350;2022-08-27T15:35:56;25.20;;;5.32;;
18752;SDS011;9505;50.882;5.350;2022-08-27T15:38:22;11.80;;;2.92;;
18752;SDS011;9505;50.882;5.350;2022-08-27T15:40:48;6.57;;;1.63;;
18752;SDS011;9505;50.882;5.350;2022-08-27T15:43:13;22.80;;;4.45;;
18752;SDS011;9505;50.882;5.350;2022-08-27T15:45:40;22.35;;;4.72;;
18752;SDS011;9505;50.882;5.350;2022-08-27T15:48:06;10.50;;;2.90;;
18752;SDS011;9505;50.882;5.350;2022-08-27T15:50:32;10.30;;;2.60;;
18752;SDS011;9505;50.882;5.350;2022-08-27T15:53:05;24.50;;;5.25;;
18752;SDS011;9505;50.882;5.350;2022-08-27T15:55:34;23.33;;;5.18;;
18752;SDS011;9505;50.882;5.350;2022-08-27T15:58:02;20.85;;;4.38;;
18752;SDS011;9505;50.882;5.350;2022-08-27T16:00:28;9.52;;;2.28;;
18752;SDS011;9505;50.882;5.350;2022-08-27T16:02:57;9.70;;;2.05;;
18752;SDS011;9505;50.882;5.350;2022-08-27T16:05:23;6.18;;;1.90;;
18752;SDS011;9505;50.882;5.350;2022-08-27T16:07:51;8.25;;;2.05;;
18752;SDS011;9505;50.882;5.350;2022-08-27T16:10:17;6.63;;;1.88;;
18752;SDS011;9505;50.882;5.350;2022-08-27T16:12:43;4.93;;;1.75;;
18752;SDS011;9505;50.882;5.350;2022-08-27T16:15:10;5.35;;;1.35;;
18752;SDS011;9505;50.882;5.350;2022-08-27T16:17:36;6.68;;;1.63;;
18752;SDS011;9505;50.882;5.350;2022-08-27T16:20:02;6.65;;;1.63;;
18752;SDS011;9505;50.882;5.350;2022-08-27T16:22:29;4.35;;;1.30;;
18752;SDS011;9505;50.882;5.350;2022-08-27T16:24:54;5.15;;;1.17;;
18752;SDS011;9505;50.882;5.350;2022-08-27T16:27:20;5.38;;;1.35;;
18752;SDS011;9505;50.882;5.350;2022-08-27T16:29:46;8.02;;;2.05;;
18752;SDS011;9505;50.882;5.350;2022-08-27T16:32:13;5.82;;;1.25;;
18752;SDS011;9505;50.882;5.350;2022-08-27T16:34:41;6.95;;;1.75;;
18752;SDS011;9505;50.882;5.350;2022-08-27T16:37:07;6.18;;;1.55;;
18752;SDS011;9505;50.882;5.350;2022-08-27T16:39:32;5.20;;;1.50;;
18752;SDS011;9505;50.882;5.350;2022-08-27T16:41:58;7.68;;;1.70;;
18752;SDS011;9505;50.882;5.350;2022-08-27T16:44:24;6.45;;;1.80;;